createdAt,value
2022-07-29T00:00:00.904Z,4.30
2022-07-29T00:02:29.567Z,4.20
2022-07-29T00:04:58.013Z,4.40
2022-07-29T00:07:26.765Z,4.50
2022-07-29T00:09:55.340Z,4.10
2022-07-29T00:12:26.760Z,4.40
2022-07-29T00:14:56.462Z,4.50
2022-07-29T00:17:25.883Z,4.70
2022-07-29T00:19:54.709Z,4.60
2022-07-29T00:22:23.778Z,4.50
2022-07-29T00:24:52.391Z,4.40
2022-07-29T00:27:20.872Z,4.70
2022-07-29T00:29:49.355Z,5.00
2022-07-29T00:32:18.040Z,4.50
2022-07-29T00:35:05.313Z,4.70
2022-07-29T00:37:34.006Z,4.40
2022-07-29T00:40:02.539Z,4.60
2022-07-29T00:42:31.222Z,4.90
2022-07-29T00:44:59.602Z,4.50
2022-07-29T00:47:28.289Z,4.40
2022-07-29T00:49:56.875Z,5.00
2022-07-29T00:52:25.987Z,4.30
2022-07-29T00:54:54.522Z,4.80
2022-07-29T00:57:23.194Z,5.10
2022-07-29T00:59:51.728Z,4.90
2022-07-29T01:02:20.278Z,4.90
2022-07-29T01:04:49.757Z,4.60
2022-07-29T01:07:19.625Z,4.50
2022-07-29T01:09:48.549Z,4.20
2022-07-29T01:12:21.408Z,4.50
2022-07-29T01:14:51.163Z,5.00
2022-07-29T01:17:26.709Z,4.60
2022-07-29T01:20:04.726Z,4.60
2022-07-29T01:22:35.978Z,5.30
2022-07-29T01:25:29.695Z,4.80
2022-07-29T01:28:23.780Z,5.30
2022-07-29T01:30:55.742Z,4.90
2022-07-29T01:33:47.267Z,4.90
2022-07-29T01:36:41.866Z,5.00
2022-07-29T01:39:15.670Z,5.00
2022-07-29T01:41:52.343Z,4.90
2022-07-29T01:44:28.272Z,5.20
2022-07-29T01:47:03.264Z,5.30
2022-07-29T01:49:38.026Z,5.00
2022-07-29T01:52:15.764Z,5.10
2022-07-29T01:54:56.958Z,5.00
2022-07-29T01:57:29.481Z,5.30
2022-07-29T02:00:00.272Z,5.40
2022-07-29T02:02:31.716Z,5.00
2022-07-29T02:07:33.146Z,4.60
2022-07-29T02:12:33.321Z,5.10
2022-07-29T02:15:04.630Z,5.40
2022-07-29T02:17:41.042Z,5.00
2022-07-29T02:20:10.958Z,5.30
2022-07-29T02:22:41.835Z,4.90
2022-07-29T02:25:14.022Z,5.00
2022-07-29T02:27:43.898Z,5.20
2022-07-29T02:30:14.566Z,4.70
2022-07-29T02:32:44.683Z,5.30
2022-07-29T02:35:17.528Z,5.20
2022-07-29T02:38:07.298Z,5.30
2022-07-29T02:40:39.820Z,5.50
2022-07-29T02:43:10.362Z,6.10
2022-07-29T02:45:39.764Z,5.80
2022-07-29T02:48:14.350Z,6.20
2022-07-29T02:50:50.139Z,5.90
2022-07-29T02:53:26.772Z,6.00
2022-07-29T02:56:03.069Z,5.90
2022-07-29T02:58:46.874Z,5.80
2022-07-29T03:01:24.631Z,5.70
2022-07-29T03:03:55.438Z,5.50
2022-07-29T03:06:38.578Z,6.00
2022-07-29T03:09:13.197Z,5.70
2022-07-29T03:11:50.004Z,5.70
2022-07-29T03:14:21.366Z,5.80
2022-07-29T03:16:52.236Z,5.70
2022-07-29T03:19:21.650Z,5.20
2022-07-29T03:21:50.625Z,5.30
2022-07-29T03:24:30.965Z,5.70
2022-07-29T03:27:00.239Z,5.60
2022-07-29T03:29:33.701Z,6.40
2022-07-29T03:32:08.169Z,6.00
2022-07-29T03:34:39.220Z,5.90
2022-07-29T03:37:08.450Z,6.10
2022-07-29T03:39:42.159Z,6.20
2022-07-29T03:42:14.447Z,6.00
2022-07-29T03:44:45.488Z,6.10
2022-07-29T03:47:16.415Z,5.90
2022-07-29T03:49:48.938Z,6.20
2022-07-29T03:52:18.394Z,5.80
2022-07-29T03:54:47.030Z,6.40
2022-07-29T03:57:16.895Z,6.30
2022-07-29T03:59:46.251Z,6.10
2022-07-29T04:02:18.849Z,6.60
2022-07-29T04:04:50.945Z,6.40
2022-07-29T04:07:20.044Z,6.30
2022-07-29T04:09:48.526Z,6.10
2022-07-29T04:12:17.208Z,6.40
2022-07-29T04:14:45.589Z,6.80
2022-07-29T04:17:13.968Z,6.70
2022-07-29T04:19:42.860Z,6.30
2022-07-29T04:22:11.502Z,6.50
2022-07-29T04:24:44.015Z,6.80
2022-07-29T04:27:13.330Z,6.70
2022-07-29T04:29:56.179Z,6.70
2022-07-29T04:32:27.862Z,6.20
2022-07-29T04:34:56.386Z,7.10
2022-07-29T04:37:24.947Z,6.40
2022-07-29T04:39:53.556Z,6.50
2022-07-29T04:42:25.238Z,6.10
2022-07-29T04:44:56.769Z,6.10
2022-07-29T04:47:25.148Z,6.40
2022-07-29T04:49:53.630Z,6.60
2022-07-29T04:52:22.727Z,6.70
2022-07-29T04:54:51.254Z,6.50
2022-07-29T04:57:19.898Z,6.30
2022-07-29T04:59:48.584Z,6.90
2022-07-29T05:02:17.311Z,6.60
2022-07-29T05:04:46.014Z,6.10
2022-07-29T05:07:14.559Z,6.30
2022-07-29T05:09:42.982Z,6.20
2022-07-29T05:12:12.228Z,5.50
2022-07-29T05:14:40.824Z,5.70
2022-07-29T05:17:09.295Z,5.60
2022-07-29T05:19:39.743Z,5.70
2022-07-29T05:22:08.925Z,5.30
2022-07-29T05:24:37.232Z,5.20
2022-07-29T05:27:05.888Z,5.50
2022-07-29T05:29:43.389Z,5.20
2022-07-29T05:32:14.628Z,5.70
2022-07-29T05:34:51.137Z,5.30
2022-07-29T05:37:21.549Z,4.80
2022-07-29T05:39:56.942Z,4.90
2022-07-29T05:42:26.683Z,4.60
2022-07-29T05:44:55.355Z,4.60
2022-07-29T05:47:24.799Z,4.70
2022-07-29T05:49:53.333Z,4.60
2022-07-29T05:52:22.731Z,4.50
2022-07-29T05:54:51.353Z,4.70
2022-07-29T05:57:22.347Z,4.80
2022-07-29T05:59:52.079Z,4.70
2022-07-29T06:02:20.791Z,4.90
2022-07-29T06:04:49.931Z,5.10
2022-07-29T06:07:18.582Z,4.90
2022-07-29T06:09:47.167Z,4.40
2022-07-29T06:12:15.849Z,4.50
2022-07-29T06:14:44.391Z,4.20
2022-07-29T06:17:13.123Z,4.20
2022-07-29T06:19:41.810Z,4.40
2022-07-29T06:22:10.243Z,4.80
2022-07-29T06:24:42.767Z,4.80
2022-07-29T06:27:12.644Z,4.10
2022-07-29T06:29:41.065Z,4.50
2022-07-29T06:32:10.330Z,4.50
2022-07-29T06:34:39.052Z,4.10
2022-07-29T06:37:15.629Z,4.50
2022-07-29T06:39:44.620Z,4.50
2022-07-29T06:42:13.309Z,4.10
2022-07-29T06:44:44.098Z,4.20
2022-07-29T06:47:12.730Z,4.50
2022-07-29T06:49:41.214Z,4.50
2022-07-29T06:52:09.901Z,4.10
2022-07-29T06:54:39.861Z,4.10
2022-07-29T06:57:08.402Z,4.10
2022-07-29T06:59:36.891Z,4.20
2022-07-29T07:02:05.831Z,4.10
2022-07-29T07:04:34.875Z,4.10
2022-07-29T07:07:03.360Z,4.50
2022-07-29T07:09:40.608Z,4.30
2022-07-29T07:12:10.152Z,4.50
2022-07-29T07:14:39.259Z,3.70
2022-07-29T07:17:08.467Z,4.10
2022-07-29T07:19:37.036Z,4.00
2022-07-29T07:22:05.928Z,4.10
2022-07-29T07:24:34.614Z,3.70
2022-07-29T07:27:03.304Z,3.90
2022-07-29T07:29:31.887Z,3.80
2022-07-29T07:32:01.339Z,3.90
2022-07-29T07:34:31.415Z,3.70
2022-07-29T07:36:59.963Z,3.90
2022-07-29T07:39:28.789Z,3.70
2022-07-29T07:41:57.374Z,4.00
2022-07-29T07:44:26.585Z,3.60
2022-07-29T07:46:55.159Z,3.50
2022-07-29T07:49:23.644Z,3.80
2022-07-29T07:51:53.816Z,3.80
2022-07-29T07:54:22.319Z,3.80
2022-07-29T07:56:53.160Z,3.90
2022-07-29T07:59:22.130Z,4.00
2022-07-29T08:01:56.111Z,3.60
2022-07-29T08:04:28.634Z,3.70
2022-07-29T08:06:59.071Z,4.00
2022-07-29T08:09:30.522Z,3.90
2022-07-29T08:12:00.433Z,3.40
2022-07-29T08:14:29.970Z,3.40
2022-07-29T08:16:59.013Z,5.00
2022-07-29T08:19:27.551Z,4.00
2022-07-29T08:21:56.137Z,3.50
2022-07-29T08:24:43.531Z,3.80
2022-07-29T08:27:40.827Z,4.00
2022-07-29T08:30:01.218Z,3.50
2022-07-29T08:32:52.626Z,3.70
2022-07-29T08:35:22.564Z,3.60
2022-07-29T08:37:51.912Z,4.00
2022-07-29T08:40:31.838Z,3.50
2022-07-29T08:43:07.665Z,3.80
2022-07-29T08:45:54.487Z,3.70
2022-07-29T08:48:25.917Z,3.50
2022-07-29T08:50:57.227Z,3.60
2022-07-29T08:53:28.209Z,3.50
2022-07-29T08:55:57.674Z,3.70
2022-07-29T08:58:28.253Z,3.50
2022-07-29T09:03:32.854Z,3.20
2022-07-29T09:06:02.815Z,3.40
2022-07-29T09:08:33.655Z,3.50
2022-07-29T09:11:05.410Z,4.10
2022-07-29T09:13:35.130Z,3.50
2022-07-29T09:16:09.138Z,3.20
2022-07-29T09:18:42.803Z,3.00
2022-07-29T09:21:32.727Z,3.30
2022-07-29T09:24:08.236Z,3.30
2022-07-29T09:26:40.344Z,3.00
2022-07-29T09:29:15.072Z,3.50
2022-07-29T09:31:46.225Z,3.60
2022-07-29T09:34:24.776Z,3.30
2022-07-29T09:36:55.425Z,3.60
2022-07-29T09:39:47.716Z,3.40
2022-07-29T09:42:29.518Z,3.70
2022-07-29T09:44:58.105Z,3.40
2022-07-29T09:47:43.010Z,3.50
2022-07-29T09:50:12.075Z,3.60
2022-07-29T09:52:58.763Z,3.30
2022-07-29T09:55:27.455Z,3.50
2022-07-29T09:58:16.314Z,3.70
2022-07-29T10:00:46.586Z,3.60
2022-07-29T10:03:16.984Z,3.30
2022-07-29T10:05:47.396Z,3.40
2022-07-29T10:11:14.770Z,5.50
2022-07-29T10:13:45.213Z,3.30
2022-07-29T10:16:15.850Z,3.30
2022-07-29T10:18:45.469Z,3.80
2022-07-29T10:21:34.489Z,3.10
2022-07-29T10:24:03.195Z,3.30
2022-07-29T10:26:32.090Z,3.30
2022-07-29T10:29:01.611Z,3.20
2022-07-29T10:31:45.366Z,3.30
2022-07-29T10:34:28.913Z,3.20
2022-07-29T10:37:55.103Z,3.70
2022-07-29T10:41:11.514Z,3.90
2022-07-29T10:46:41.299Z,4.70
2022-07-29T10:49:15.629Z,3.10
2022-07-29T10:52:07.192Z,3.40
2022-07-29T10:54:39.707Z,3.40
2022-07-29T10:57:17.409Z,3.10
2022-07-29T10:59:52.890Z,3.20
2022-07-29T11:02:41.975Z,3.40
2022-07-29T11:05:20.326Z,3.30
2022-07-29T11:11:22.120Z,3.70
2022-07-29T11:13:53.254Z,3.10
2022-07-29T11:16:25.016Z,3.10
2022-07-29T11:19:16.099Z,4.50
2022-07-29T11:24:50.043Z,3.10
2022-07-29T11:27:23.485Z,19.80
2022-07-29T11:30:04.862Z,3.40
2022-07-29T11:32:40.369Z,3.50
2022-07-29T11:35:19.326Z,3.20
2022-07-29T11:38:27.985Z,2.90
2022-07-29T11:41:22.816Z,3.30
2022-07-29T11:43:59.070Z,4.40
2022-07-29T11:46:47.915Z,2.90
2022-07-29T11:49:32.236Z,3.30
2022-07-29T11:52:05.670Z,3.00
2022-07-29T11:54:38.907Z,5.10
2022-07-29T11:57:36.630Z,3.80
2022-07-29T12:00:12.715Z,3.20
2022-07-29T12:02:48.764Z,3.40
2022-07-29T12:05:35.863Z,3.20
2022-07-29T12:08:15.039Z,3.80
2022-07-29T12:10:44.742Z,3.00
2022-07-29T12:13:14.449Z,3.60
2022-07-29T12:15:45.960Z,3.30
2022-07-29T12:18:18.217Z,4.00
2022-07-29T12:20:48.608Z,8.40
2022-07-29T12:23:18.998Z,13.20
2022-07-29T12:25:49.655Z,3.60
2022-07-29T12:28:26.836Z,3.50
2022-07-29T12:30:56.315Z,5.10
2022-07-29T12:33:30.811Z,3.40
2022-07-29T12:36:17.135Z,4.50
2022-07-29T12:38:47.413Z,4.60
2022-07-29T12:41:15.897Z,4.50
2022-07-29T12:43:55.692Z,5.70
2022-07-29T12:46:24.270Z,3.80
2022-07-29T12:48:57.835Z,4.30
2022-07-29T12:51:32.476Z,4.10
2022-07-29T12:54:14.503Z,5.10
2022-07-29T12:56:45.629Z,4.70
2022-07-29T12:59:15.655Z,3.60
2022-07-29T13:01:45.470Z,3.20
2022-07-29T13:04:34.753Z,3.50
2022-07-29T13:07:09.093Z,3.20
2022-07-29T13:09:40.201Z,3.40
2022-07-29T13:12:11.320Z,3.40
2022-07-29T13:14:44.823Z,3.10
2022-07-29T13:17:14.699Z,3.10
2022-07-29T13:19:54.639Z,3.70
2022-07-29T13:22:26.747Z,3.70
2022-07-29T13:24:58.507Z,3.20
2022-07-29T13:27:31.173Z,3.70
2022-07-29T13:30:01.704Z,3.20
2022-07-29T13:32:32.044Z,3.30
2022-07-29T13:35:06.083Z,3.00
2022-07-29T13:37:39.303Z,2.90
2022-07-29T13:40:12.956Z,3.60
2022-07-29T13:42:42.181Z,3.10
2022-07-29T13:45:12.118Z,3.10
2022-07-29T13:47:43.582Z,3.20
2022-07-29T13:50:15.950Z,3.10
2022-07-29T13:52:44.689Z,3.10
2022-07-29T13:55:13.375Z,3.30
2022-07-29T13:57:41.959Z,3.30
2022-07-29T14:00:11.822Z,3.30
2022-07-29T14:02:40.775Z,4.40
2022-07-29T14:05:11.321Z,3.40
2022-07-29T14:07:40.513Z,3.60
2022-07-29T14:10:09.586Z,3.50
2022-07-29T14:12:39.137Z,3.70
2022-07-29T14:15:08.029Z,3.60
2022-07-29T14:17:36.432Z,3.50
2022-07-29T14:20:06.117Z,3.70
2022-07-29T14:22:37.849Z,3.90
2022-07-29T14:25:15.035Z,3.50
2022-07-29T14:27:45.106Z,4.10
2022-07-29T14:30:13.954Z,3.90
2022-07-29T14:32:42.633Z,3.80
2022-07-29T14:35:11.232Z,3.90
2022-07-29T14:37:40.883Z,3.40
2022-07-29T14:40:10.782Z,3.90
2022-07-29T14:42:39.646Z,4.20
2022-07-29T14:45:10.766Z,4.10
2022-07-29T14:47:40.191Z,4.00
2022-07-29T14:50:10.103Z,3.90
2022-07-29T14:52:39.505Z,3.70
2022-07-29T14:55:19.716Z,3.70
2022-07-29T14:57:51.092Z,3.80
2022-07-29T15:00:19.703Z,4.00
2022-07-29T15:03:04.198Z,3.80
2022-07-29T15:05:33.059Z,4.20
2022-07-29T15:08:01.733Z,3.80
2022-07-29T15:10:30.831Z,4.00
2022-07-29T15:13:03.117Z,3.90
2022-07-29T15:16:31.452Z,3.70
2022-07-29T15:20:04.284Z,3.80
2022-07-29T15:23:32.670Z,4.40
2022-07-29T15:26:20.418Z,4.20
2022-07-29T15:28:49.076Z,3.70
2022-07-29T15:32:17.414Z,4.00
2022-07-29T15:35:09.003Z,4.10
2022-07-29T15:37:49.004Z,4.50
2022-07-29T15:40:18.051Z,4.90
2022-07-29T15:42:46.620Z,3.70
2022-07-29T15:45:15.122Z,3.90
2022-07-29T15:47:43.814Z,4.00
2022-07-29T15:50:17.159Z,3.90
2022-07-29T15:52:45.997Z,3.90
2022-07-29T15:55:16.017Z,4.00
2022-07-29T15:57:44.601Z,3.90
2022-07-29T16:00:14.207Z,3.90
2022-07-29T16:02:43.011Z,4.40
2022-07-29T16:05:11.480Z,4.30
2022-07-29T16:07:39.977Z,5.00
2022-07-29T16:10:09.267Z,4.20
2022-07-29T16:12:37.648Z,4.40
2022-07-29T16:15:09.957Z,4.40
2022-07-29T16:17:39.638Z,5.40
2022-07-29T16:20:08.714Z,4.60
2022-07-29T16:22:37.162Z,4.40
2022-07-29T16:25:06.410Z,4.90
2022-07-29T16:27:37.907Z,5.00
2022-07-29T16:30:11.157Z,5.00
2022-07-29T16:32:40.559Z,4.90
2022-07-29T16:35:10.111Z,4.60
2022-07-29T16:37:39.575Z,4.50
2022-07-29T16:40:11.698Z,4.90
2022-07-29T16:42:48.167Z,4.80
2022-07-29T16:45:17.472Z,4.50
2022-07-29T16:47:49.038Z,4.60
2022-07-29T16:50:18.577Z,4.50
2022-07-29T16:52:47.059Z,4.60
2022-07-29T16:55:15.748Z,4.60
2022-07-29T16:57:44.335Z,4.70
2022-07-29T17:00:13.696Z,4.10
2022-07-29T17:02:42.833Z,4.60
2022-07-29T17:05:12.502Z,4.40
2022-07-29T17:07:41.211Z,4.60
2022-07-29T17:10:10.645Z,4.10
2022-07-29T17:12:41.270Z,4.00
2022-07-29T17:17:54.813Z,4.00
2022-07-29T17:20:26.801Z,4.10
2022-07-29T17:22:56.411Z,4.20
2022-07-29T17:25:25.085Z,3.30
2022-07-29T17:27:57.539Z,4.00
2022-07-29T17:30:29.940Z,3.90
2022-07-29T17:32:58.521Z,3.70
2022-07-29T17:35:46.206Z,4.10
2022-07-29T17:38:14.944Z,3.80
2022-07-29T17:40:43.735Z,3.60
2022-07-29T17:43:12.336Z,4.20
2022-07-29T17:45:49.362Z,4.30
2022-07-29T17:48:20.451Z,4.40
2022-07-29T17:50:49.440Z,4.50
2022-07-29T17:53:18.248Z,4.30
2022-07-29T17:55:48.845Z,4.70
2022-07-29T17:58:17.553Z,4.30
2022-07-29T18:00:46.111Z,4.30
2022-07-29T18:03:15.970Z,4.40
2022-07-29T18:05:44.745Z,5.00
2022-07-29T18:08:13.500Z,5.10
2022-07-29T18:10:42.218Z,5.10
2022-07-29T18:13:14.488Z,5.20
2022-07-29T18:15:45.277Z,4.60
2022-07-29T18:21:51.952Z,4.70
2022-07-29T18:24:42.016Z,4.80
2022-07-29T18:27:10.521Z,5.70
2022-07-29T18:29:39.238Z,4.90
2022-07-29T18:32:08.076Z,4.80
2022-07-29T18:34:36.661Z,5.00
2022-07-29T18:37:05.475Z,5.60
2022-07-29T18:39:34.107Z,5.10
2022-07-29T18:42:02.654Z,5.00
2022-07-29T18:44:31.054Z,4.60
2022-07-29T18:47:00.534Z,4.30
2022-07-29T18:49:29.392Z,4.80
2022-07-29T18:51:58.292Z,4.50
2022-07-29T18:55:26.541Z,4.70
2022-07-29T18:58:54.863Z,4.80
2022-07-29T19:02:23.257Z,4.90
2022-07-29T19:05:51.637Z,5.30
2022-07-29T19:09:19.750Z,4.90
2022-07-29T19:39:15.579Z,5.40
2022-07-29T19:41:44.483Z,5.10
2022-07-29T19:44:12.933Z,5.20
2022-07-29T19:46:45.082Z,5.20
2022-07-29T19:49:14.041Z,4.90
2022-07-29T19:51:42.714Z,4.60
2022-07-29T19:54:11.529Z,5.10
2022-07-29T19:56:42.176Z,5.60
2022-07-29T19:59:10.954Z,5.20
2022-07-29T20:01:41.339Z,5.20
2022-07-29T20:04:10.045Z,5.70
2022-07-29T20:06:38.585Z,5.40
2022-07-29T20:09:07.418Z,6.00
2022-07-29T20:11:36.890Z,6.00
2022-07-29T20:14:05.832Z,5.50
2022-07-29T20:16:34.509Z,5.50
2022-07-29T20:19:02.990Z,5.50
2022-07-29T20:21:55.481Z,5.80
2022-07-29T20:24:24.222Z,5.10
2022-07-29T20:26:53.010Z,5.70
2022-07-29T20:29:21.597Z,5.50
2022-07-29T20:31:52.915Z,5.50
2022-07-29T20:34:25.774Z,5.60
2022-07-29T20:36:54.374Z,5.10
2022-07-29T20:39:23.673Z,5.50
2022-07-29T20:41:52.237Z,6.30
2022-07-29T20:44:21.142Z,5.10
2022-07-29T20:46:49.938Z,5.50
2022-07-29T20:49:18.600Z,6.60
2022-07-29T20:51:47.275Z,5.90
2022-07-29T20:54:15.739Z,6.10
2022-07-29T20:56:44.312Z,5.50
2022-07-29T20:59:13.376Z,5.60
2022-07-29T21:01:41.898Z,5.50
2022-07-29T21:04:10.571Z,5.50
2022-07-29T21:06:39.585Z,5.70
2022-07-29T21:09:08.180Z,5.50
2022-07-29T21:11:43.228Z,6.20
2022-07-29T21:14:28.277Z,5.70
2022-07-29T21:16:57.481Z,5.90
2022-07-29T21:19:26.576Z,5.80
2022-07-29T21:21:55.059Z,5.70
2022-07-29T21:24:23.743Z,5.60
2022-07-29T21:27:18.203Z,6.40
2022-07-29T21:29:41.497Z,6.10
2022-07-29T21:32:10.013Z,6.20
2022-07-29T21:34:38.674Z,6.00
2022-07-29T21:37:09.401Z,6.50
2022-07-29T21:39:38.403Z,6.30
2022-07-29T21:42:08.909Z,6.50
2022-07-29T21:44:41.303Z,6.90
2022-07-29T21:47:11.013Z,6.30
2022-07-29T21:49:39.703Z,6.50
2022-07-29T21:52:08.979Z,6.80
2022-07-29T21:54:37.585Z,7.00
2022-07-29T21:57:07.379Z,11.00
2022-07-29T21:59:35.985Z,14.10
2022-07-29T22:02:05.190Z,17.80
2022-07-29T22:04:36.055Z,18.70
2022-07-29T22:07:05.345Z,13.30
2022-07-29T22:09:34.219Z,11.40
2022-07-29T22:12:03.007Z,10.20
2022-07-29T22:14:31.594Z,10.80
2022-07-29T22:17:00.677Z,10.00
2022-07-29T22:19:29.969Z,9.00
2022-07-29T22:21:59.086Z,8.30
2022-07-29T22:24:27.568Z,7.30
2022-07-29T22:26:56.363Z,7.50
2022-07-29T22:29:27.196Z,6.00
2022-07-29T22:31:55.882Z,5.90
2022-07-29T22:34:24.803Z,5.20
2022-07-29T22:37:03.690Z,5.50
2022-07-29T22:39:32.698Z,5.80
2022-07-29T22:42:01.655Z,5.40
2022-07-29T22:44:30.482Z,5.30
2022-07-29T22:46:59.101Z,5.40
2022-07-29T22:49:27.802Z,5.10
2022-07-29T22:51:56.685Z,4.90
2022-07-29T22:54:25.184Z,4.90
2022-07-29T22:56:53.917Z,5.10
2022-07-29T22:59:22.542Z,4.90
2022-07-29T23:01:51.021Z,5.00
2022-07-29T23:04:24.102Z,5.40
2022-07-29T23:06:52.972Z,4.90
2022-07-29T23:09:21.504Z,4.80
2022-07-29T23:11:50.097Z,5.60
2022-07-29T23:14:18.783Z,5.70
2022-07-29T23:16:47.988Z,5.10
2022-07-29T23:19:16.630Z,5.20
2022-07-29T23:21:45.400Z,5.00
2022-07-29T23:24:14.086Z,4.90
2022-07-29T23:26:42.625Z,5.10
2022-07-29T23:29:11.241Z,4.90
2022-07-29T23:31:41.728Z,5.00
2022-07-29T23:34:11.803Z,5.40
2022-07-29T23:36:42.546Z,5.70
2022-07-29T23:39:12.763Z,5.70
2022-07-29T23:41:41.858Z,5.60
2022-07-29T23:44:10.651Z,5.80
2022-07-29T23:46:39.181Z,5.90
2022-07-29T23:49:07.840Z,6.60
2022-07-29T23:51:36.506Z,7.10
2022-07-29T23:54:05.091Z,7.00
2022-07-29T23:56:33.972Z,7.80
2022-07-29T23:59:04.020Z,8.50
